Gattman, Mississippi
Current Conditions -  °F | °C
As of 7:35 AM on Saturday 20 Dec 2014 (Local Time) from KM40 Reporting Station
Haze Haze  
Wind Chill: 36°   Ceiling: Unl
Heat Index: 36°   Visibility: 1.5mi
Dew Point: 23°   Wind: 3mph
Humidity: 60%   Direction: 350°N
Pressure: 30.26"   Gusts: NA
Location:  33.89°N, 88.24°W
Report Text: KM40 201335Z AUTO 35003KT 1 1/2SM HZ CLR 02/M05 A3026 RMK AO2
Loading
Personal Weather Stations






























Interactive Weather Map New forecast layout! Learn more

10-Day Weather Forecast

Advertisements
Track Severe Weather on mobile